Time;durP1;ratioP1;P1;durP2;ratioP2;P2;SDS_P1;SDS_P2;PMS_P1;PMS_P2;Temp;Humidity;BMP_temperature;BMP_pressure;BME280_temperature;BME280_humidity;BME280_pressure;Samples;Min_cycle;Max_cycle;Signal;HPM_P1;HPM_P2
2023/06/01 00:01:40;;;;;;;;;26.00;24.00;;;;;17.06;73.15;100212.09;5071952;28;45358;-77
2023/06/01 00:04:07;;;;;;;;;26.50;25.00;;;;;16.95;73.00;100190.09;5064356;28;45644;-77
2023/06/01 00:06:32;;;;;;;;;28.50;26.50;;;;;16.52;72.54;100109.25;5072417;28;45513;-77
2023/06/01 00:08:58;;;;;;;;;28.25;25.75;;;;;17.09;72.71;100207.69;5069502;28;45646;-78
2023/06/01 00:11:25;;;;;;;;;25.25;23.75;;;;;16.71;73.43;100141.75;5065626;28;45469;-78
2023/06/01 00:13:51;;;;;;;;;28.75;26.00;;;;;16.49;73.56;100141.78;5060304;28;45481;-77
2023/06/01 00:16:17;;;;;;;;;29.00;26.00;;;;;16.79;73.46;100202.41;5049016;28;45428;-77
2023/06/01 00:18:43;;;;;;;;;23.25;22.50;;;;;16.70;73.67;100193.63;5065325;28;45438;-77
2023/06/01 00:21:09;;;;;;;;;27.25;24.50;;;;;16.78;73.63;100209.44;5053619;28;45520;-77
2023/06/01 00:23:35;;;;;;;;;27.25;23.50;;;;;16.54;72.91;100160.25;5059788;28;45589;-77
2023/06/01 00:26:01;;;;;;;;;25.75;23.00;;;;;16.73;72.89;100189.22;5068302;28;45414;-77
2023/06/01 00:28:27;;;;;;;;;24.25;24.00;;;;;16.82;73.14;100187.50;5062785;28;46333;-77
2023/06/01 00:30:53;;;;;;;;;25.25;23.25;;;;;16.35;72.68;100101.34;5066626;28;45398;-77
2023/06/01 00:33:21;;;;;;;;;26.50;22.50;;;;;16.82;72.65;100181.34;5067539;28;45423;-77
2023/06/01 00:35:47;;;;;;;;;27.25;25.75;;;;;16.45;74.05;100118.03;5064055;28;45390;-77
2023/06/01 00:38:13;;;;;;;;;26.75;26.00;;;;;16.71;74.21;100186.59;5064798;28;45327;-77
2023/06/01 00:40:39;;;;;;;;;30.50;28.00;;;;;16.28;74.00;100100.50;5066091;28;45501;-77
2023/06/01 00:43:04;;;;;;;;;25.25;24.00;;;;;16.72;73.33;100164.63;5069726;28;45208;-77
2023/06/01 00:45:30;;;;;;;;;27.00;26.75;;;;;16.44;73.84;100154.09;5065753;28;45462;-77
2023/06/01 00:47:56;;;;;;;;;25.75;24.50;;;;;16.46;73.66;100157.59;5059847;28;45412;-77
2023/06/01 00:50:22;;;;;;;;;25.50;23.00;;;;;16.63;73.49;100178.72;5067316;28;45518;-77
2023/06/01 00:52:50;;;;;;;;;26.00;24.50;;;;;16.65;73.92;100176.03;5057207;28;45609;-77
2023/06/01 00:55:16;;;;;;;;;25.00;23.75;;;;;16.56;74.02;100173.44;5060855;28;45328;-77
2023/06/01 00:57:44;;;;;;;;;26.50;25.25;;;;;16.41;74.51;100164.66;5068207;28;46117;-77
2023/06/01 01:00:10;;;;;;;;;28.25;28.00;;;;;16.29;74.24;100151.44;5068618;28;45525;-77
2023/06/01 01:02:41;;;;;;;;;29.50;26.50;;;;;16.31;74.87;100157.59;5058428;28;45312;-77
2023/06/01 01:05:11;;;;;;;;;30.25;27.50;;;;;16.06;75.25;100118.06;5059708;28;45543;-77
2023/06/01 01:07:47;;;;;;;;;27.25;26.25;;;;;16.24;76.01;100145.31;5071818;28;46252;-77
2023/06/01 01:10:40;;;;;;;;;26.75;24.00;;;;;16.30;75.37;100153.22;5067102;28;45548;-77
2023/06/01 01:13:14;;;;;;;;;29.25;26.50;;;;;16.32;74.71;100150.59;5063161;28;45537;-77
2023/06/01 01:15:48;;;;;;;;;27.00;25.50;;;;;16.31;74.46;100141.78;5063351;28;45569;-77
2023/06/01 01:18:32;;;;;;;;;25.25;24.00;;;;;16.30;74.33;100125.09;5061736;28;45507;-77
2023/06/01 01:21:01;;;;;;;;;23.25;22.00;;;;;15.90;74.58;100051.31;5059770;28;45458;-77
2023/06/01 01:23:45;;;;;;;;;27.50;25.25;;;;;16.42;74.01;100131.25;5071026;28;45508;-77
2023/06/01 01:26:34;;;;;;;;;24.50;23.50;;;;;16.41;73.73;100127.75;5065608;28;45339;-77
2023/06/01 01:29:03;;;;;;;;;23.75;21.75;;;;;16.46;73.81;100118.06;5064615;28;45789;-77
2023/06/01 01:31:30;;;;;;;;;28.50;25.00;;;;;16.41;74.40;100111.94;5070250;28;45324;-77
2023/06/01 01:33:58;;;;;;;;;28.75;26.50;;;;;16.27;74.66;100113.66;5066829;28;45572;-77
2023/06/01 01:36:24;;;;;;;;;26.75;25.50;;;;;16.10;75.36;100111.91;5068755;28;45579;-77
2023/06/01 01:38:50;;;;;;;;;27.75;25.50;;;;;16.04;75.50;100111.03;5067587;28;45489;-77
2023/06/01 01:41:16;;;;;;;;;25.00;23.25;;;;;15.99;75.82;100107.50;5070594;28;45497;-77
2023/06/01 01:43:43;;;;;;;;;29.25;26.75;;;;;15.96;75.62;100118.06;5066800;28;45344;-77
2023/06/01 01:46:17;;;;;;;;;30.75;28.00;;;;;15.91;76.35;100107.50;5068919;28;45239;-77
2023/06/01 01:48:56;;;;;;;;;27.75;25.50;;;;;15.89;76.59;100104.84;5065546;27;45492;-77
2023/06/01 01:52:00;;;;;;;;;28.75;26.25;;;;;15.56;76.84;100039.84;5061369;28;45495;-77
2023/06/01 01:54:28;;;;;;;;;28.25;26.75;;;;;15.83;76.00;100090.81;5059112;28;45597;-78
2023/06/01 01:56:58;;;;;;;;;26.00;24.25;;;;;15.13;76.07;99950.28;5070128;28;45631;-77
2023/06/01 01:59:25;;;;;;;;;28.75;26.50;;;;;15.47;76.06;100018.75;5079452;28;46338;-77
2023/06/01 02:01:51;;;;;;;;;27.00;25.25;;;;;16.06;75.61;100115.44;5078486;28;45366;-77
2023/06/01 02:04:16;;;;;;;;;27.75;26.00;;;;;15.56;75.50;100026.69;5078681;27;45260;-78
2023/06/01 02:06:42;;;;;;;;;25.00;23.75;;;;;15.81;74.90;100067.09;5078660;28;45315;-77
2023/06/01 02:09:08;;;;;;;;;22.75;20.50;;;;;16.09;74.46;100117.19;5062760;28;45821;-77
2023/06/01 02:11:35;;;;;;;;;29.50;28.25;;;;;16.03;74.84;100112.78;5058630;28;45338;-77
2023/06/01 02:14:01;;;;;;;;;27.75;25.75;;;;;15.79;75.33;100110.13;5059230;28;45466;-78
2023/06/01 02:16:27;;;;;;;;;28.25;28.00;;;;;15.84;75.28;100108.38;5059173;28;45430;-77
2023/06/01 02:18:53;;;;;;;;;23.00;22.00;;;;;15.85;74.89;100105.72;5059176;28;46026;-78
2023/06/01 02:21:18;;;;;;;;;26.00;23.50;;;;;15.57;74.49;100048.63;5059564;28;45324;-77
2023/06/01 02:23:44;;;;;;;;;26.25;26.00;;;;;15.50;74.80;100045.97;5063106;28;45174;-77
2023/06/01 02:26:10;;;;;;;;;27.25;25.00;;;;;15.68;75.23;100079.34;5079614;28;45513;-77
2023/06/01 02:28:40;;;;;;;;;26.50;23.25;;;;;15.54;74.96;100045.97;5078820;28;45781;-77
2023/06/01 02:31:06;;;;;;;;;25.50;24.00;;;;;14.78;74.98;99922.16;5060674;28;45454;-77
2023/06/01 02:33:32;;;;;;;;;25.50;23.00;;;;;15.90;74.57;100109.25;5073675;28;45375;-77
2023/06/01 02:35:59;;;;;;;;;29.25;25.00;;;;;15.30;74.50;100016.13;5059079;28;45233;-77
2023/06/01 02:38:25;;;;;;;;;30.00;26.50;;;;;15.89;74.65;100101.34;5057959;28;46070;-77
2023/06/01 02:40:51;;;;;;;;;28.00;26.50;;;;;15.85;74.85;100096.97;5072395;28;45453;-78
2023/06/01 02:43:17;;;;;;;;;26.75;25.00;;;;;15.85;74.92;100100.47;5059172;28;45553;-77
2023/06/01 02:45:42;;;;;;;;;29.50;27.50;;;;;15.71;74.94;100102.19;5073523;28;45458;-77
2023/06/01 02:48:08;;;;;;;;;28.25;26.25;;;;;15.49;75.25;100075.78;5064090;28;46214;-77
2023/06/01 02:50:33;;;;;;;;;25.50;25.50;;;;;15.25;75.08;100037.13;5068151;27;45461;-77
2023/06/01 02:52:59;;;;;;;;;27.50;26.00;;;;;15.64;75.30;100098.66;5072515;28;45673;-77
2023/06/01 02:55:24;;;;;;;;;36.25;29.75;;;;;15.52;75.82;100102.16;5077311;28;45544;-77
2023/06/01 02:57:50;;;;;;;;;31.00;27.00;;;;;15.47;75.69;100097.72;5078091;28;46214;-77
2023/06/01 03:00:17;;;;;;;;;27.75;25.00;;;;;15.37;75.68;100074.91;5077804;28;45469;-77
2023/06/01 03:02:46;;;;;;;;;27.00;25.25;;;;;15.40;75.39;100078.44;5077873;28;45328;-78
2023/06/01 03:05:14;;;;;;;;;23.25;23.00;;;;;15.61;75.18;100103.03;5074995;28;45413;-77
2023/06/01 03:07:44;;;;;;;;;26.00;24.75;;;;;15.63;75.17;100102.16;5060003;28;45468;-77
2023/06/01 03:10:10;;;;;;;;;29.25;25.25;;;;;15.49;75.01;100088.97;5068259;27;45465;-77
2023/06/01 03:12:37;;;;;;;;;26.00;25.00;;;;;15.56;75.81;100096.88;5062234;28;45494;-77
2023/06/01 03:15:03;;;;;;;;;31.50;28.75;;;;;14.93;76.06;100015.13;5073358;28;45587;-77
2023/06/01 03:17:29;;;;;;;;;28.25;27.00;;;;;15.07;76.35;100052.88;5057518;28;45501;-77
2023/06/01 03:19:54;;;;;;;;;27.25;25.25;;;;;14.98;76.56;100056.34;5069514;28;45417;-78
2023/06/01 03:22:20;;;;;;;;;27.25;27.25;;;;;14.97;76.97;100049.31;5062197;28;45526;-77
2023/06/01 03:24:49;;;;;;;;;31.50;28.50;;;;;15.32;76.73;100099.44;5073063;28;45229;-77
2023/06/01 03:27:19;;;;;;;;;28.25;25.75;;;;;15.39;76.72;100099.47;5057534;28;46082;-77
2023/06/01 03:29:44;;;;;;;;;32.25;29.00;;;;;15.39;77.51;100102.09;5071570;28;45435;-77
2023/06/01 03:32:10;;;;;;;;;24.00;22.00;;;;;14.97;76.37;100038.81;5060350;28;45310;-77
2023/06/01 03:34:36;;;;;;;;;30.75;28.25;;;;;14.57;76.98;99953.63;5057614;28;45281;-77
2023/06/01 03:37:05;;;;;;;;;29.50;27.75;;;;;15.30;77.11;100079.28;5065080;28;45871;-77
2023/06/01 03:39:35;;;;;;;;;27.75;24.75;;;;;15.13;76.13;100038.88;5064099;28;45513;-77
2023/06/01 03:42:01;;;;;;;;;31.00;27.00;;;;;15.17;75.38;100048.53;5060112;28;45330;-78
2023/06/01 03:44:27;;;;;;;;;25.00;23.25;;;;;15.45;75.07;100102.13;5059118;28;45610;-77
2023/06/01 03:46:52;;;;;;;;;28.25;24.75;;;;;15.50;74.47;100103.88;5076139;28;46055;-77
2023/06/01 03:49:18;;;;;;;;;27.75;24.50;;;;;15.44;74.36;100084.59;5077508;28;45419;-77
2023/06/01 03:51:44;;;;;;;;;29.25;25.50;;;;;15.57;74.51;100099.50;5076546;28;45615;-77
2023/06/01 03:54:10;;;;;;;;;24.00;23.50;;;;;15.33;74.90;100055.59;5074703;28;45288;-77
2023/06/01 03:56:35;;;;;;;;;29.00;26.00;;;;;15.34;75.18;100062.63;5061542;28;45161;-77
2023/06/01 03:59:01;;;;;;;;;20.25;18.25;;;;;15.11;74.46;100007.28;5057538;28;45489;-77
2023/06/01 04:01:30;;;;;;;;;25.25;24.00;;;;;15.71;74.22;100091.63;5058001;28;45585;-77
2023/06/01 04:03:56;;;;;;;;;25.25;24.50;;;;;15.44;74.31;100045.97;5058820;28;45307;-77
2023/06/01 04:06:23;;;;;;;;;25.00;23.75;;;;;15.25;74.37;100029.25;5077406;28;45236;-77
2023/06/01 04:08:55;;;;;;;;;24.25;23.25;;;;;15.43;74.84;100057.34;5059951;28;45438;-78
2023/06/01 04:11:21;;;;;;;;;24.25;22.00;;;;;15.61;74.39;100087.25;5055728;28;45351;-78
2023/06/01 04:13:48;;;;;;;;;29.00;27.00;;;;;15.34;74.62;100038.94;5058963;28;45470;-77
2023/06/01 04:16:15;;;;;;;;;28.50;26.75;;;;;15.57;75.00;100102.16;5056944;28;46175;-77
2023/06/01 04:18:42;;;;;;;;;28.25;26.75;;;;;15.40;74.77;100106.47;5071051;28;45220;-77
2023/06/01 04:21:08;;;;;;;;;30.25;26.50;;;;;15.23;75.62;100103.78;5064060;28;45470;-77
2023/06/01 04:23:35;;;;;;;;;24.00;23.50;;;;;14.48;75.28;100000.00;5056507;28;45493;-77
2023/06/01 04:26:02;;;;;;;;;28.00;26.75;;;;;15.10;75.86;100105.50;5068400;28;45496;-78
2023/06/01 04:28:28;;;;;;;;;32.00;28.50;;;;;14.88;75.73;100072.94;5063004;28;45496;-78
2023/06/01 04:30:54;;;;;;;;;28.75;26.75;;;;;15.09;76.37;100116.91;5058842;27;45753;-77
2023/06/01 04:33:20;;;;;;;;;28.75;26.00;;;;;14.67;76.66;100042.19;5077167;27;45374;-77
2023/06/01 04:35:45;;;;;;;;;28.75;27.00;;;;;15.21;76.80;100116.94;5073337;28;45454;-77
2023/06/01 04:38:11;;;;;;;;;28.00;27.50;;;;;15.33;76.32;100118.75;5056952;28;45548;-77
2023/06/01 04:40:37;;;;;;;;;35.50;31.50;;;;;15.29;76.95;100103.81;5056602;28;45400;-77
2023/06/01 04:43:02;;;;;;;;;30.25;28.75;;;;;15.39;76.66;100110.00;5068971;28;45667;-77
2023/06/01 04:45:33;;;;;;;;;32.25;29.75;;;;;15.39;77.35;100121.41;5058615;28;46563;-77
2023/06/01 04:47:58;;;;;;;;;28.00;25.75;;;;;15.52;76.65;100127.59;5076040;28;45448;-77
2023/06/01 04:50:24;;;;;;;;;29.00;25.25;;;;;15.40;75.39;100090.69;5066593;28;45308;-77
2023/06/01 04:52:49;;;;;;;;;32.00;30.75;;;;;15.44;75.35;100097.75;5075428;28;45441;-77
2023/06/01 04:55:16;;;;;;;;;25.25;24.50;;;;;15.47;74.81;100089.84;5066711;28;46421;-77
2023/06/01 04:57:45;;;;;;;;;32.50;26.25;;;;;15.73;74.96;100149.63;5069486;28;45504;-77
2023/06/01 05:00:14;;;;;;;;;30.00;27.25;;;;;15.42;75.36;100096.81;5061759;28;45496;-77
2023/06/01 05:02:42;;;;;;;;;25.25;23.25;;;;;15.64;76.01;100153.97;5059663;28;45778;-77
2023/06/01 05:05:08;;;;;;;;;28.00;25.25;;;;;15.28;77.85;100092.41;5063967;28;45623;-77
2023/06/01 05:07:34;;;;;;;;;31.50;27.50;;;;;15.36;77.38;100091.53;5059430;28;45346;-77
2023/06/01 05:10:04;;;;;;;;;28.75;28.00;;;;;15.85;78.85;100162.81;5075000;28;45411;-77
2023/06/01 05:12:30;;;;;;;;;36.25;33.00;;;;;15.97;81.08;100164.59;5065321;28;45651;-77
2023/06/01 05:14:55;;;;;;;;;33.50;30.75;;;;;15.57;81.95;100081.09;5078966;27;46033;-77
2023/06/01 05:17:21;;;;;;;;;42.50;34.75;;;;;16.03;81.89;100122.44;5078115;28;45375;-77
2023/06/01 05:19:46;;;;;;;;;39.25;32.00;;;;;16.36;82.41;100171.66;5061042;28;45490;-77
2023/06/01 05:22:12;;;;;;;;;36.00;32.25;;;;;16.29;82.95;100146.16;5064573;28;45394;-77
2023/06/01 05:24:37;;;;;;;;;34.25;30.25;;;;;16.46;82.80;100159.38;5069024;27;45990;-76
2023/06/01 05:27:04;;;;;;;;;36.00;31.75;;;;;16.07;83.20;100095.22;5072117;28;45530;-77
2023/06/01 05:29:30;;;;;;;;;35.00;31.25;;;;;16.26;82.64;100118.06;5062114;28;45477;-77
2023/06/01 05:31:55;;;;;;;;;41.50;32.75;;;;;16.58;83.21;100158.50;5073581;27;45541;-77
2023/06/01 05:34:22;;;;;;;;;36.25;32.25;;;;;16.10;82.31;100071.53;5058651;28;46125;-76
2023/06/01 05:36:48;;;;;;;;;35.75;32.00;;;;;16.61;82.22;100148.81;5071945;28;45510;-76
2023/06/01 05:39:14;;;;;;;;;32.75;30.00;;;;;16.73;82.02;100155.81;5060875;28;45445;-77
2023/06/01 05:41:40;;;;;;;;;33.50;30.00;;;;;16.92;80.90;100174.31;5058607;28;46123;-76
2023/06/01 05:44:07;;;;;;;;;34.50;31.75;;;;;16.65;80.43;100120.66;5063315;28;46236;-76
2023/06/01 05:46:33;;;;;;;;;35.25;29.75;;;;;16.52;79.66;100095.22;5070006;28;45769;-76
2023/06/01 05:48:58;;;;;;;;;32.25;30.00;;;;;16.96;78.41;100166.38;5059046;28;45420;-78
2023/06/01 05:51:24;;;;;;;;;28.00;25.25;;;;;16.71;78.01;100125.91;5066830;28;45527;-81
2023/06/01 05:53:49;;;;;;;;;29.00;26.50;;;;;16.19;77.24;100036.38;5058754;28;46384;-80
2023/06/01 05:56:16;;;;;;;;;23.00;23.00;;;;;16.89;76.96;100160.22;5058869;28;45557;-78
2023/06/01 05:58:42;;;;;;;;;26.50;24.75;;;;;16.87;76.12;100159.34;5059032;28;45297;-80
2023/06/01 06:01:09;;;;;;;;;23.25;21.25;;;;;16.28;75.92;100054.81;5074034;28;45407;-82
2023/06/01 06:03:34;;;;;;;;;23.00;22.00;;;;;15.96;75.28;99983.72;5074909;28;45493;-76
2023/06/01 06:06:00;;;;;;;;;26.25;25.00;;;;;16.88;74.93;100140.00;5065026;28;45594;-76
2023/06/01 06:08:27;;;;;;;;;24.75;24.25;;;;;16.68;73.89;100107.47;5077577;28;45370;-78
2023/06/01 06:10:52;;;;;;;;;24.75;22.00;;;;;16.72;74.07;100137.38;5060707;28;45543;-77
2023/06/01 06:13:18;;;;;;;;;24.50;23.00;;;;;16.38;74.16;100087.31;5074979;28;45538;-78
2023/06/01 06:15:46;;;;;;;;;23.00;22.25;;;;;16.67;73.95;100143.53;5058481;28;45435;-78
2023/06/01 06:18:12;;;;;;;;;23.00;23.00;;;;;16.63;74.63;100144.41;5068085;28;45570;-79
2023/06/01 06:20:38;;;;;;;;;24.75;24.50;;;;;15.80;74.07;99981.09;5064180;28;45746;-77
2023/06/01 06:23:03;;;;;;;;;25.25;24.00;;;;;16.86;73.67;100139.13;5062989;28;45529;-74
2023/06/01 06:25:32;;;;;;;;;24.50;24.25;;;;;16.94;73.48;100147.03;5072011;28;45438;-75
2023/06/01 06:27:57;;;;;;;;;24.50;23.00;;;;;16.90;73.35;100130.31;5058903;27;45440;-72
2023/06/01 06:30:24;;;;;;;;;28.50;27.00;;;;;16.87;73.55;100147.91;5069013;28;45517;-73
2023/06/01 06:32:50;;;;;;;;;27.25;26.50;;;;;16.73;73.92;100134.72;5074408;28;46274;-72
2023/06/01 06:35:15;;;;;;;;;26.75;25.75;;;;;16.72;74.33;100153.19;5064003;28;45335;-73
2023/06/01 06:37:41;;;;;;;;;23.75;22.00;;;;;16.37;74.25;100101.38;5077134;28;47650;-73
2023/06/01 06:40:08;;;;;;;;;22.75;21.25;;;;;16.62;74.16;100157.59;5076759;28;45437;-73
2023/06/01 06:42:33;;;;;;;;;28.00;25.25;;;;;16.54;74.74;100162.00;5060476;28;46393;-74
2023/06/01 06:44:59;;;;;;;;;30.50;27.25;;;;;16.19;75.37;100128.59;5076838;28;45432;-73
2023/06/01 06:47:24;;;;;;;;;26.00;25.00;;;;;16.14;75.41;100123.34;5068131;28;45499;-73
2023/06/01 06:49:51;;;;;;;;;28.50;25.25;;;;;16.39;75.78;100155.84;5058241;28;45424;-73
2023/06/01 06:52:17;;;;;;;;;33.00;29.25;;;;;16.38;76.01;100153.22;5075372;28;46168;-74
2023/06/01 06:54:43;;;;;;;;;34.25;31.00;;;;;16.49;76.60;100157.63;5077928;28;45496;-73
2023/06/01 06:57:09;;;;;;;;;31.75;26.75;;;;;16.51;76.30;100147.03;5076860;28;45389;-76
2023/06/01 06:59:35;;;;;;;;;33.25;29.75;;;;;16.66;76.63;100156.72;5061771;28;45501;-73
2023/06/01 07:02:00;;;;;;;;;32.50;29.50;;;;;16.74;76.87;100157.59;5068595;28;45919;-74
2023/06/01 07:04:27;;;;;;;;;30.25;29.75;;;;;16.82;77.13;100154.97;5070925;28;45510;-74
2023/06/01 07:06:53;;;;;;;;;22.00;20.00;;;;;16.92;76.25;100158.47;5075111;28;45528;-73
2023/06/01 07:09:18;;;;;;;;;26.75;26.75;;;;;16.98;76.21;100142.63;5076257;28;45572;-78
2023/06/01 07:11:45;;;;;;;;;27.50;22.75;;;;;17.19;75.88;100153.13;5076012;28;46548;-75
2023/06/01 07:14:11;;;;;;;;;30.75;29.50;;;;;17.35;75.55;100145.13;5076854;28;45708;-74
2023/06/01 07:16:36;;;;;;;;;27.75;25.25;;;;;17.32;75.05;100102.91;5076166;28;45576;-76
2023/06/01 07:19:02;;;;;;;;;32.00;28.00;;;;;17.64;75.03;100147.63;5072990;28;45396;-76
2023/06/01 07:21:28;;;;;;;;;28.00;27.50;;;;;17.71;75.06;100162.56;5066325;28;46161;-76
2023/06/01 07:23:53;;;;;;;;;30.25;28.00;;;;;17.56;75.49;100131.81;5072887;28;45645;-75
2023/06/01 07:26:20;;;;;;;;;31.25;28.75;;;;;17.68;75.70;100129.09;5070174;28;45256;-76
2023/06/01 07:28:46;;;;;;;;;25.50;24.00;;;;;17.72;74.55;100102.69;5070897;28;45724;-76
2023/06/01 07:31:11;;;;;;;;;31.75;30.00;;;;;18.19;74.30;100154.38;5063366;28;45545;-77
2023/06/01 07:33:37;;;;;;;;;29.75;28.50;;;;;18.27;73.99;100152.53;5062718;28;45520;-76
2023/06/01 07:36:04;;;;;;;;;28.25;26.00;;;;;18.26;73.75;100127.88;5055642;28;45257;-77
2023/06/01 07:38:31;;;;;;;;;33.75;29.25;;;;;18.38;74.04;100153.34;5069281;28;46591;-76
2023/06/01 07:40:56;;;;;;;;;29.50;27.50;;;;;18.36;73.81;100141.88;5073646;28;46940;-75
2023/06/01 07:43:22;;;;;;;;;25.50;23.50;;;;;18.46;73.35;100146.22;5073295;28;45456;-77
2023/06/01 07:45:47;;;;;;;;;26.50;25.75;;;;;18.23;73.09;100077.66;5065415;28;45403;-78
2023/06/01 07:48:13;;;;;;;;;34.50;28.00;;;;;18.71;72.92;100158.34;5066176;28;45461;-78
2023/06/01 07:50:38;;;;;;;;;26.75;24.00;;;;;18.73;73.08;100154.78;5057137;28;45576;-79
2023/06/01 07:53:04;;;;;;;;;27.25;25.25;;;;;18.80;72.81;100151.22;5072234;28;45608;-79
2023/06/01 07:55:30;;;;;;;;;27.25;26.25;;;;;18.61;73.06;100107.28;5056695;28;45335;-78
2023/06/01 07:57:55;;;;;;;;;30.50;27.25;;;;;18.73;72.55;100107.16;5066701;28;45421;-78
2023/06/01 08:00:22;;;;;;;;;33.75;29.00;;;;;19.00;72.69;100139.53;5058672;28;45504;-78
2023/06/01 08:02:47;;;;;;;;;24.75;23.50;;;;;18.94;72.76;100121.06;5059776;28;45363;-78
2023/06/01 08:05:18;;;;;;;;;25.25;23.00;;;;;19.01;72.85;100112.16;5070509;28;45428;-78
2023/06/01 08:07:45;;;;;;;;;25.00;24.50;;;;;19.32;71.79;100143.56;5067094;28;45485;-78
2023/06/01 08:10:11;;;;;;;;;25.50;23.75;;;;;19.39;72.21;100145.25;5061280;28;45535;-78
2023/06/01 08:12:37;;;;;;;;;25.75;24.50;;;;;19.25;71.80;100098.63;5074682;28;45371;-79
2023/06/01 08:15:03;;;;;;;;;28.25;26.50;;;;;19.17;72.38;100060.78;5076091;28;45326;-78
2023/06/01 08:17:29;;;;;;;;;28.75;24.50;;;;;19.59;73.02;100145.84;5076361;28;45332;-79
2023/06/01 08:19:56;;;;;;;;;28.00;26.75;;;;;19.68;72.91;100144.88;5074757;27;45474;-78
2023/06/01 08:22:23;;;;;;;;;30.75;27.25;;;;;19.67;72.31;100108.66;5058815;28;45900;-78
2023/06/01 08:24:51;;;;;;;;;25.25;24.00;;;;;20.08;70.91;100146.97;5056184;28;45698;-78
2023/06/01 08:27:22;;;;;;;;;28.50;25.50;;;;;20.08;70.04;100146.09;5056692;28;45562;-79
2023/06/01 08:29:48;;;;;;;;;32.00;28.75;;;;;20.17;70.38;100138.84;5055913;28;46115;-79
2023/06/01 08:32:15;;;;;;;;;27.00;24.25;;;;;20.39;70.10;100138.50;5075584;28;45326;-79
2023/06/01 08:34:41;;;;;;;;;29.00;27.00;;;;;20.70;69.46;100135.38;5060098;28;46543;-78
2023/06/01 08:37:07;;;;;;;;;26.75;25.50;;;;;20.98;69.39;100141.91;5076110;28;45433;-78
2023/06/01 08:39:32;;;;;;;;;24.50;21.00;;;;;21.27;68.22;100143.13;5058059;28;46025;-78
2023/06/01 08:42:08;;;;;;;;;26.25;25.00;;;;;21.13;67.38;100071.69;5065890;28;45560;-79
2023/06/01 08:44:39;;;;;;;;;25.50;23.50;;;;;21.84;67.06;100139.25;5067193;28;45336;-78
2023/06/01 08:47:05;;;;;;;;;30.25;26.25;;;;;22.02;66.41;100132.63;5056066;28;45473;-78
2023/06/01 08:49:32;;;;;;;;;26.25;24.25;;;;;21.85;66.21;100051.47;5055874;28;45667;-78
2023/06/01 08:52:12;;;;;;;;;26.50;23.75;;;;;22.40;65.67;100073.19;5070255;27;45516;-79
2023/06/01 08:54:39;;;;;;;;;25.50;23.25;;;;;22.98;64.36;100083.16;5067750;28;45789;-78
2023/06/01 08:57:09;;;;;;;;;25.50;24.25;;;;;23.70;63.70;100130.81;5060768;28;45397;-79
2023/06/01 08:59:36;;;;;;;;;25.25;24.00;;;;;23.97;62.77;100105.97;5071335;28;45679;-79
2023/06/01 09:02:02;;;;;;;;;27.75;26.25;;;;;24.24;62.04;100100.63;5055930;28;45455;-79
2023/06/01 09:04:30;;;;;;;;;23.00;21.25;;;;;24.65;60.95;100122.41;5056089;28;45280;-79
2023/06/01 09:06:56;;;;;;;;;21.75;21.50;;;;;24.71;60.48;100116.88;5071415;28;45498;-78
2023/06/01 09:09:22;;;;;;;;;21.33;20.33;;;;;24.50;59.33;100058.81;5055752;28;45461;-79
2023/06/01 09:11:47;;;;;;;;;23.00;22.00;;;;;25.03;59.36;100133.53;5063415;28;45342;-79
2023/06/01 09:14:24;;;;;;;;;20.67;19.67;;;;;25.00;58.70;100123.81;5064017;28;45256;-79
2023/06/01 09:16:50;;;;;;;;;21.33;19.67;;;;;24.88;59.58;100128.75;5056604;28;45408;-79
2023/06/01 09:19:18;;;;;;;;;24.33;22.33;;;;;24.86;57.91;100114.56;5069937;28;45398;-79
2023/06/01 09:21:59;;;;;;;;;21.00;19.00;;;;;24.81;58.09;100118.28;5055204;28;45692;-79
2023/06/01 09:24:26;;;;;;;;;19.33;16.67;;;;;24.76;57.92;100130.03;5055787;28;45616;-79
2023/06/01 09:26:59;;;;;;;;;25.00;23.33;;;;;24.62;58.08;100095.81;5071760;28;45754;-79
2023/06/01 09:29:25;;;;;;;;;24.00;21.00;;;;;24.95;57.55;100131.13;5064097;28;46411;-79
2023/06/01 09:31:50;;;;;;;;;26.25;25.50;;;;;24.99;57.51;100124.75;5062930;28;45552;-79
2023/06/01 09:34:19;;;;;;;;;21.33;19.00;;;;;24.78;57.52;100085.44;5055332;28;45260;-79
2023/06/01 09:36:45;;;;;;;;;22.00;21.25;;;;;24.95;57.91;100131.13;5058896;28;45327;-79
2023/06/01 09:39:16;;;;;;;;;24.67;23.00;;;;;24.96;57.17;100114.16;5055716;28;47120;-79
2023/06/01 09:41:55;;;;;;;;;25.50;24.25;;;;;24.72;57.58;100128.41;5055731;28;45468;-79
2023/06/01 09:44:30;;;;;;;;;23.00;22.50;;;;;24.69;58.31;100124.06;5065972;28;45419;-79
2023/06/01 09:47:00;;;;;;;;;30.25;26.75;;;;;24.43;59.54;100122.22;5066150;28;45487;-79
2023/06/01 09:49:31;;;;;;;;;23.33;21.67;;;;;24.56;58.89;100122.72;5065885;28;46113;-79
2023/06/01 09:52:05;;;;;;;;;25.67;23.33;;;;;24.74;57.77;100127.41;5073757;28;45422;-78
2023/06/01 09:54:34;;;;;;;;;22.50;22.00;;;;;24.60;57.67;100087.84;5072030;28;45450;-78
2023/06/01 09:57:01;;;;;;;;;24.25;23.25;;;;;24.84;58.15;100132.44;5061947;28;45352;-78
2023/06/01 09:59:28;;;;;;;;;22.50;22.25;;;;;24.88;57.98;100132.28;5072482;28;45497;-78
2023/06/01 10:01:57;;;;;;;;;24.25;21.75;;;;;24.84;57.75;100111.94;5058512;28;45618;-78
2023/06/01 10:04:27;;;;;;;;;29.25;27.75;;;;;24.84;58.07;100135.97;5065926;27;45433;-78
2023/06/01 10:06:55;;;;;;;;;22.00;22.00;;;;;24.78;57.90;100134.41;5067800;28;45530;-78
2023/06/01 10:09:24;;;;;;;;;27.25;26.25;;;;;24.77;57.43;100137.13;5057663;28;46200;-78
2023/06/01 10:11:55;;;;;;;;;20.33;20.33;;;;;24.72;58.07;100131.09;5073384;28;45481;-78
2023/06/01 10:14:23;;;;;;;;;21.67;20.00;;;;;24.69;58.43;100134.75;5065469;28;45532;-78
2023/06/01 10:16:51;;;;;;;;;27.00;23.50;;;;;24.51;58.74;100127.34;5066319;27;45469;-78
2023/06/01 10:19:17;;;;;;;;;25.75;24.50;;;;;24.56;58.79;100122.72;5058367;28;45431;-79
2023/06/01 10:21:47;;;;;;;;;24.00;22.25;;;;;24.56;58.50;100123.59;5058325;28;45418;-78
2023/06/01 10:24:17;;;;;;;;;19.67;19.00;;;;;24.73;58.42;100125.69;5058377;28;45476;-78
2023/06/01 10:27:07;;;;;;;;;23.00;22.00;;;;;24.82;58.12;100124.47;5058818;28;45273;-78
2023/06/01 10:29:33;;;;;;;;;22.50;20.00;;;;;24.85;57.47;100111.03;5059857;28;45588;-79
2023/06/01 10:31:59;;;;;;;;;23.50;23.50;;;;;25.07;57.32;100119.13;5058367;28;45520;-78
2023/06/01 10:34:41;;;;;;;;;23.50;23.25;;;;;25.09;58.21;100114.59;5074925;28;45347;-78
2023/06/01 10:37:12;;;;;;;;;23.67;21.67;;;;;25.24;57.67;100106.97;5058831;28;45588;-78
2023/06/01 10:39:37;;;;;;;;;21.00;19.67;;;;;25.12;57.75;100061.00;5058478;28;45621;-78
2023/06/01 10:42:23;;;;;;;;;23.67;21.33;;;;;25.57;57.62;100108.34;5074433;28;45515;-77
2023/06/01 10:44:49;;;;;;;;;27.50;25.75;;;;;25.74;56.63;100104.13;5055586;28;45371;-77
2023/06/01 10:47:20;;;;;;;;;30.50;26.25;;;;;25.67;57.96;100102.66;5071244;28;45523;-77
2023/06/01 10:49:49;;;;;;;;;26.00;23.00;;;;;25.84;58.12;100096.59;5061212;28;45556;-78
2023/06/01 10:52:26;;;;;;;;;27.00;25.75;;;;;25.85;57.38;100095.69;5079466;28;45952;-77
2023/06/01 10:54:53;;;;;;;;;25.25;24.75;;;;;25.85;57.28;100079.63;5078774;28;45455;-79
2023/06/01 10:57:25;;;;;;;;;26.50;24.25;;;;;26.01;56.21;100090.63;5064552;28;45371;-77
2023/06/01 11:00:26;;;;;;;;;24.67;23.00;;;;;25.90;56.95;100061.56;5057385;28;45418;-79
2023/06/01 11:02:59;;;;;;;;;20.00;19.00;;;;;26.27;56.20;100077.00;5025302;28;45273;-79
2023/06/01 11:05:50;;;;;;;;;44.75;36.00;;;;;26.37;55.30;100081.00;5058381;28;45512;-78
2023/06/01 11:08:21;;;;;;;;;26.00;24.00;;;;;26.37;54.92;100078.34;5070110;28;45670;-79
2023/06/01 11:10:53;;;;;;;;;20.67;20.67;;;;;26.55;55.35;100081.16;5078453;28;45364;-78
2023/06/01 11:13:27;;;;;;;;;23.00;22.67;;;;;26.68;54.84;100079.72;5078431;28;45457;-76